Time,TemperatureF,DewpointF,PressureIn,WindDirection,WindDirectionDegrees,WindSpeedMPH,WindSpeedGustMPH,Humidity,HourlyPrecipIn,Conditions,Clouds,dailyrainin,SolarRadiationWatts/m^2,SoftwareType,DateUTC
2013-12-10 00:02:00,-12.0,-19.0,-100.00,SW,227,4.0,9.0,71,0.00,,,0.00,0.000000,,2013-12-10 06:02:00,
2013-12-10 00:22:00,-12.0,-19.0,-100.00,WSW,243,4.0,9.0,71,0.00,,,0.00,0.000000,,2013-12-10 06:22:00,
2013-12-10 00:32:00,-12.0,-19.0,-100.00,WSW,243,4.0,9.0,71,0.00,,,0.00,0.000000,,2013-12-10 06:32:00,
2013-12-10 00:42:00,-12.0,-19.0,-100.00,WSW,243,4.0,9.0,71,0.00,,,0.00,0.000000,,2013-12-10 06:42:00,
2013-12-10 00:53:00,-12.0,-19.0,-100.00,WSW,243,4.0,9.0,71,0.00,,,0.00,0.000000,,2013-12-10 06:53:00,
2013-12-10 01:02:00,-12.0,-19.0,-100.00,WSW,243,4.0,9.0,71,0.00,,,0.00,0.000000,,2013-12-10 07:02:00,
2013-12-10 01:22:00,-14.0,-21.0,-100.00,SSW,196,2.0,7.0,70,0.00,,,0.00,0.000000,,2013-12-10 07:22:00,
2013-12-10 01:33:00,-14.0,-21.0,-100.00,SSW,196,2.0,7.0,70,0.00,,,0.00,0.000000,,2013-12-10 07:33:00,
2013-12-10 01:42:00,-14.0,-21.0,-100.00,SSW,196,2.0,7.0,70,0.00,,,0.00,0.000000,,2013-12-10 07:42:00,
2013-12-10 01:52:00,-14.0,-21.0,-100.00,SSW,196,2.0,7.0,70,0.00,,,0.00,0.000000,,2013-12-10 07:52:00,
2013-12-10 02:02:00,-14.0,-21.0,-100.00,SSW,196,2.0,7.0,70,0.00,,,0.00,0.000000,,2013-12-10 08:02:00,
2013-12-10 02:42:00,-16.0,-23.0,-100.00,SW,221,3.0,5.0,70,0.00,,,0.00,0.000000,,2013-12-10 08:42:00,
2013-12-10 02:52:00,-16.0,-23.0,-100.00,SW,221,3.0,5.0,70,0.00,,,0.00,0.000000,,2013-12-10 08:52:00,
2013-12-10 03:02:00,-16.0,-23.0,-100.00,SW,221,3.0,5.0,70,0.00,,,0.00,0.000000,,2013-12-10 09:02:00,
2013-12-10 03:44:00,-16.0,-23.0,-100.00,SW,232,2.0,5.0,70,0.00,,,0.00,0.000000,,2013-12-10 09:44:00,
2013-12-10 03:54:00,-16.0,-23.0,-100.00,SW,232,2.0,5.0,70,0.00,,,0.00,0.000000,,2013-12-10 09:54:00,
2013-12-10 04:03:00,-16.0,-23.0,-100.00,SW,232,2.0,5.0,70,0.00,,,0.00,0.000000,,2013-12-10 10:03:00,
2013-12-10 04:43:00,-17.0,-24.0,-100.00,WSW,250,2.0,4.0,69,0.00,,,0.00,0.000000,,2013-12-10 10:43:00,
2013-12-10 04:53:00,-17.0,-24.0,-100.00,WSW,250,2.0,4.0,69,0.00,,,0.00,0.000000,,2013-12-10 10:53:00,
2013-12-10 05:02:00,-17.0,-24.0,-100.00,WSW,250,2.0,4.0,69,0.00,,,0.00,0.000000,,2013-12-10 11:02:00,
2013-12-10 05:43:00,-17.0,-24.0,-100.00,WSW,241,2.0,4.0,69,0.00,,,0.00,0.000000,,2013-12-10 11:43:00,
2013-12-10 05:53:00,-17.0,-24.0,-100.00,WSW,241,2.0,4.0,69,0.00,,,0.00,0.000000,,2013-12-10 11:53:00,
2013-12-10 06:02:00,-17.0,-24.0,-100.00,WSW,241,2.0,4.0,69,0.00,,,0.00,0.000000,,2013-12-10 12:02:00,
2013-12-10 09:04:00,-12.0,-20.0,-100.00,West,262,3.0,5.0,66,-99.99,,,0.00,37.000000,,2013-12-10 15:04:00,
2013-12-10 09:44:00,-12.0,-20.0,-100.00,West,262,3.0,5.0,66,-99.99,,,0.00,37.000000,,2013-12-10 15:44:00,
2013-12-10 09:53:00,-12.0,-20.0,-100.00,West,262,3.0,5.0,66,-99.99,,,0.00,37.000000,,2013-12-10 15:53:00,
2013-12-10 10:43:00,-9.0,-18.0,-100.00,West,266,4.0,10.0,65,0.00,,,-99.99,110.000000,,2013-12-10 16:43:00,
2013-12-10 10:52:00,-9.0,-18.0,-100.00,West,266,4.0,10.0,65,0.00,,,-99.99,110.000000,,2013-12-10 16:52:00,
2013-12-10 11:03:00,-9.0,-18.0,-100.00,West,266,4.0,10.0,65,0.00,,,-99.99,110.000000,,2013-12-10 17:03:00,
2013-12-10 11:43:00,-7.0,-15.0,-100.00,West,259,4.0,9.0,68,0.00,,,0.00,131.000000,,2013-12-10 17:43:00,
2013-12-10 11:52:00,-7.0,-15.0,-100.00,West,259,4.0,9.0,68,0.00,,,0.00,131.000000,,2013-12-10 17:52:00,
2013-12-10 12:02:00,-7.0,-15.0,-100.00,West,259,4.0,9.0,68,0.00,,,0.00,131.000000,,2013-12-10 18:02:00,
2013-12-10 12:42:00,-6.0,-14.0,-100.00,West,269,6.0,11.0,68,0.00,,,0.00,123.000000,,2013-12-10 18:42:00,
2013-12-10 12:52:00,-6.0,-14.0,-100.00,West,269,6.0,11.0,68,0.00,,,0.00,123.000000,,2013-12-10 18:52:00,
2013-12-10 13:02:00,-6.0,-14.0,-100.00,West,269,6.0,11.0,68,0.00,,,0.00,123.000000,,2013-12-10 19:02:00,
2013-12-10 13:22:00,-3.0,-11.0,-100.00,West,281,6.0,13.0,67,0.00,,,0.00,172.000000,,2013-12-10 19:22:00,
2013-12-10 13:32:00,-3.0,-11.0,-100.00,West,281,6.0,13.0,67,0.00,,,0.00,172.000000,,2013-12-10 19:32:00,
2013-12-10 13:42:00,-3.0,-11.0,-100.00,West,281,6.0,13.0,67,0.00,,,0.00,172.000000,,2013-12-10 19:42:00,
2013-12-10 13:52:00,-3.0,-11.0,-100.00,West,281,6.0,13.0,67,0.00,,,0.00,172.000000,,2013-12-10 19:52:00,
2013-12-10 14:02:00,-3.0,-11.0,-100.00,West,281,6.0,13.0,67,0.00,,,0.00,172.000000,,2013-12-10 20:02:00,
2013-12-10 14:42:00,-3.0,-12.0,-100.00,West,274,6.0,13.0,64,0.00,,,0.00,217.000000,,2013-12-10 20:42:00,
2013-12-10 14:52:00,-3.0,-12.0,-100.00,West,274,6.0,13.0,64,0.00,,,0.00,217.000000,,2013-12-10 20:52:00,
2013-12-10 15:02:00,-3.0,-12.0,-100.00,West,274,6.0,13.0,64,0.00,,,0.00,217.000000,,2013-12-10 21:02:00,
2013-12-10 15:04:00,-4.0,-12.0,-100.00,WNW,284,5.0,13.0,66,0.00,,,0.00,97.000000,,2013-12-10 21:04:00,
2013-12-10 15:43:00,-4.0,-12.0,-100.00,WNW,284,5.0,13.0,66,0.00,,,0.00,97.000000,,2013-12-10 21:43:00,
2013-12-10 15:54:00,-4.0,-12.0,-100.00,WNW,284,5.0,13.0,66,0.00,,,0.00,97.000000,,2013-12-10 21:54:00,
2013-12-10 16:43:00,-7.0,-14.0,-100.00,WSW,258,4.0,10.0,69,0.00,,,0.00,34.000000,,2013-12-10 22:43:00,
2013-12-10 16:53:00,-7.0,-14.0,-100.00,WSW,258,4.0,10.0,69,0.00,,,0.00,34.000000,,2013-12-10 22:53:00,
2013-12-10 17:02:00,-7.0,-14.0,-100.00,WSW,258,4.0,10.0,69,0.00,,,0.00,34.000000,,2013-12-10 23:02:00,
2013-12-10 17:43:00,-11.0,-17.0,-100.00,West,261,3.0,7.0,72,0.00,,,0.00,1.000000,,2013-12-10 23:43:00,
2013-12-10 17:53:00,-11.0,-17.0,-100.00,West,261,3.0,7.0,72,0.00,,,0.00,1.000000,,2013-12-10 23:53:00,
2013-12-10 18:02:00,-11.0,-17.0,-100.00,West,261,3.0,7.0,72,0.00,,,0.00,1.000000,,2013-12-11 00:02:00,
2013-12-10 18:23:00,-12.0,-18.0,-100.00,WSW,250,3.0,5.0,73,0.00,,,0.00,0.000000,,2013-12-11 00:23:00,
2013-12-10 18:32:00,-12.0,-18.0,-100.00,WSW,250,3.0,5.0,73,0.00,,,0.00,0.000000,,2013-12-11 00:32:00,
2013-12-10 18:42:00,-12.0,-18.0,-100.00,WSW,250,3.0,5.0,73,0.00,,,0.00,0.000000,,2013-12-11 00:42:00,
2013-12-10 18:52:00,-12.0,-18.0,-100.00,WSW,250,3.0,5.0,73,0.00,,,0.00,0.000000,,2013-12-11 00:52:00,
2013-12-10 19:01:00,-12.0,-18.0,-100.00,WSW,250,3.0,5.0,73,0.00,,,0.00,0.000000,,2013-12-11 01:01:00,
2013-12-10 19:42:00,-10.0,-16.0,-100.00,WSW,258,3.0,6.0,73,0.00,,,0.00,0.000000,,2013-12-11 01:42:00,
2013-12-10 19:52:00,-10.0,-16.0,-100.00,WSW,258,3.0,6.0,73,0.00,,,0.00,0.000000,,2013-12-11 01:52:00,
2013-12-10 20:02:00,-10.0,-16.0,-100.00,WSW,258,3.0,6.0,73,0.00,,,0.00,0.000000,,2013-12-11 02:02:00,
2013-12-10 20:42:00,-12.0,-18.0,-100.00,West,261,4.0,7.0,72,0.00,,,0.00,0.000000,,2013-12-11 02:42:00,
2013-12-10 20:52:00,-12.0,-18.0,-100.00,West,261,4.0,7.0,72,0.00,,,0.00,0.000000,,2013-12-11 02:52:00,
2013-12-10 21:02:00,-12.0,-18.0,-100.00,West,261,4.0,7.0,72,0.00,,,0.00,0.000000,,2013-12-11 03:02:00,
2013-12-10 21:43:00,-12.0,-18.0,-100.00,West,260,5.0,9.0,72,0.00,,,0.00,0.000000,,2013-12-11 03:43:00,
2013-12-10 21:54:00,-12.0,-18.0,-100.00,West,260,5.0,9.0,72,0.00,,,0.00,0.000000,,2013-12-11 03:54:00,
2013-12-10 22:03:00,-12.0,-18.0,-100.00,West,260,5.0,9.0,72,0.00,,,0.00,0.000000,,2013-12-11 04:03:00,
2013-12-10 22:43:00,-12.0,-18.0,-100.00,West,271,4.0,10.0,72,0.00,,,0.00,0.000000,,2013-12-11 04:43:00,
2013-12-10 22:53:00,-12.0,-18.0,-100.00,West,271,4.0,10.0,72,0.00,,,0.00,0.000000,,2013-12-11 04:53:00,
2013-12-10 23:03:00,-12.0,-18.0,-100.00,West,271,4.0,10.0,72,0.00,,,0.00,0.000000,,2013-12-11 05:03:00,
2013-12-10 23:43:00,-14.0,-21.0,-100.00,West,263,4.0,8.0,71,0.00,,,0.00,0.000000,,2013-12-11 05:43:00,
2013-12-10 23:53:00,-14.0,-21.0,-100.00,West,263,4.0,8.0,71,0.00,,,0.00,0.000000,,2013-12-11 05:53:00,